Portada
METAR-TAF:

METAR-TAF

Aeropuertos :

Aeropuerto de Tarbes-Lourdes-Pirineos

Tarbes Lourdes, Francia

latitud: 43-11N, longitud: 000-00W, altitud: 379 m

Observación

El informe se hizo hace 22 minutos, a las 13:00 UTC
Viento 4 kt del noreste, variando entre norte y este-sureste
Temperatura 20°C
Humedad 43%
Presión 1019 hPa
Visibilidad 10 km o más
sin nubes por debajo de 1500 m y sin presencia de cumulonimbus.

METAR: LFBT 151300Z AUTO 05004KT 010V110 CAVOK 20/07 Q1019 NOSIG

Hora: 14:22 (13:22 UTC)

Pronóstico

El informe se hizo hace 2 horas y 22 minutos, a las 11:00 UTC
Pronóstico válido del 15 a las 12 UTC al 16 a las 12 UTC
Viento 3 kt con dirección variable
Visibilidad 10 km o más
sin nubes por debajo de 1500 m y sin presencia de cumulonimbus.
Probabilidad 30% :
Temporalmente
del 16 a las 00 UTC al 16 a las 06 UTC
Visibilidad: 3000 m
neblina

TAF: LFBT 151100Z 1512/1612 VRB03KT CAVOK PROB30 TEMPO 1600/1606 3000 BR

Observaciones y pronósticos meteorológicos de más de 4000 aeropuertos (mensajes METAR y TAF).

Los puntos amarillos y rojos representan las estaciones disponibles.

Ponga el ratón en el punto deseado para ver el nombre de la estación.

Haga clic para ver las observaciones y los pronósticos meteorológicos.

Para cambiar el mapa : haga clic en los botones verdes con una cruz de color negro para hacer un zoom, en el botón verde con un guión para alejar o en las flechas verdes para mapas adyacentes.


METAR-TAF: